Time;durP1;ratioP1;P1;durP2;ratioP2;P2;SDS_P1;SDS_P2;PMS_P1;PMS_P2;Temp;Humidity;BMP_temperature;BMP_pressure;BME280_temperature;BME280_humidity;BME280_pressure;Samples;Min_cycle;Max_cycle;Signal;HPM_P1;HPM_P2
2022/10/02 00:01:46;;;;;;;8.80;6.50;;;;;;;;;;106470;1305;22566;-34
2022/10/02 00:04:16;;;;;;;8.40;6.30;;;;;;;;;;106376;1307;22660;-34
2022/10/02 00:06:47;;;;;;;8.30;6.10;;;;;;;;;;106353;1303;22564;-34
2022/10/02 00:09:19;;;;;;;9.30;6.30;;;;;;;;;;106333;1300;22566;-34
2022/10/02 00:11:49;;;;;;;6.90;5.70;;;;;;;;;;106373;1303;24303;-34
2022/10/02 00:14:20;;;;;;;8.30;5.60;;;;;;;;;;106374;1306;22561;-34
2022/10/02 00:16:50;;;;;;;7.90;5.80;;;;;;;;;;106463;1303;22566;-34
2022/10/02 00:19:19;;;;;;;7.10;5.60;;;;;;;;;;106466;1303;22647;-34
2022/10/02 00:21:56;;;;;;;7.50;5.90;;;;;;;;;;106447;1303;22633;-33
2022/10/02 00:24:27;;;;;;;7.00;5.50;;;;;;;;;;106371;1307;22578;-33
2022/10/02 00:26:59;;;;;;;7.00;5.80;;;;;;;;;;106375;1307;22537;-34
2022/10/02 00:29:32;;;;;;;7.00;5.30;;;;;;;;;;106373;1307;22609;-34
2022/10/02 00:32:09;;;;;;;7.10;5.60;;;;;;;;;;106371;1305;22538;-34
2022/10/02 00:34:46;;;;;;;7.40;5.70;;;;;;;;;;106365;1307;22572;-34
2022/10/02 00:37:21;;;;;;;7.00;5.40;;;;;;;;;;106442;1304;22557;-34
2022/10/02 00:40:01;;;;;;;7.00;5.20;;;;;;;;;;106455;1305;22878;-34
2022/10/02 00:42:41;;;;;;;7.30;5.30;;;;;;;;;;106465;1301;22559;-34
2022/10/02 00:45:20;;;;;;;7.40;5.40;;;;;;;;;;106378;1307;22588;-34
2022/10/02 00:47:54;;;;;;;6.70;4.80;;;;;;;;;;106403;1303;22648;-34
2022/10/02 00:50:30;;;;;;;6.30;4.70;;;;;;;;;;106377;1305;22701;-34
2022/10/02 00:53:10;;;;;;;7.60;5.20;;;;;;;;;;106353;1306;22576;-33
2022/10/02 00:55:45;;;;;;;6.80;5.00;;;;;;;;;;106333;1307;22724;-33
2022/10/02 00:58:18;;;;;;;6.80;4.90;;;;;;;;;;106475;1303;22573;-33
2022/10/02 01:00:50;;;;;;;6.70;4.70;;;;;;;;;;106428;1301;22552;-33
2022/10/02 01:03:23;;;;;;;7.10;4.60;;;;;;;;;;106434;1307;22646;-33
2022/10/02 01:05:52;;;;;;;6.50;4.50;;;;;;;;;;106758;1297;24184;-34
2022/10/02 01:08:21;;;;;;;6.30;4.60;;;;;;;;;;106808;1300;22568;-34
2022/10/02 01:10:50;;;;;;;6.70;4.50;;;;;;;;;;106828;1303;24848;-35
2022/10/02 01:13:20;;;;;;;6.70;4.70;;;;;;;;;;106843;1303;22520;-35
2022/10/02 01:15:51;;;;;;;6.10;4.50;;;;;;;;;;106776;1303;22532;-35
2022/10/02 01:18:20;;;;;;;5.90;4.50;;;;;;;;;;106822;1300;22659;-35
2022/10/02 01:20:50;;;;;;;6.30;4.60;;;;;;;;;;106838;1299;22679;-35
2022/10/02 01:23:24;;;;;;;6.20;4.40;;;;;;;;;;106858;1297;22553;-35
2022/10/02 01:25:53;;;;;;;5.90;4.60;;;;;;;;;;106814;1300;22570;-35
2022/10/02 01:28:22;;;;;;;6.50;4.80;;;;;;;;;;106858;1303;22547;-34
2022/10/02 01:30:53;;;;;;;6.10;4.60;;;;;;;;;;106836;1303;22567;-34
2022/10/02 01:33:22;;;;;;;6.90;4.50;;;;;;;;;;106806;1296;23857;-34
2022/10/02 01:35:51;;;;;;;5.90;4.30;;;;;;;;;;106770;1303;25523;-34
2022/10/02 01:38:21;;;;;;;6.40;4.60;;;;;;;;;;106792;1299;22641;-34
2022/10/02 01:40:50;;;;;;;6.40;4.30;;;;;;;;;;106824;1297;24261;-34
2022/10/02 01:43:21;;;;;;;6.40;4.10;;;;;;;;;;106841;1301;22543;-34
2022/10/02 01:45:55;;;;;;;6.40;4.30;;;;;;;;;;106804;1303;22664;-34
2022/10/02 01:48:36;;;;;;;6.10;4.20;;;;;;;;;;106829;1298;22559;-34
2022/10/02 01:51:13;;;;;;;7.00;4.30;;;;;;;;;;106832;1303;22548;-34
2022/10/02 01:53:44;;;;;;;6.10;4.20;;;;;;;;;;106814;1302;22562;-34
2022/10/02 01:56:17;;;;;;;6.10;4.20;;;;;;;;;;106753;1303;25374;-34
2022/10/02 01:58:52;;;;;;;5.60;4.10;;;;;;;;;;106813;1296;22552;-34
2022/10/02 02:01:27;;;;;;;5.50;4.00;;;;;;;;;;106818;1296;22560;-34
2022/10/02 02:03:59;;;;;;;5.90;4.00;;;;;;;;;;106567;1298;22555;-34
2022/10/02 02:06:30;;;;;;;5.90;4.00;;;;;;;;;;106784;1299;22542;-34
2022/10/02 02:09:04;;;;;;;5.60;3.90;;;;;;;;;;106728;1296;22643;-34
2022/10/02 02:11:35;;;;;;;6.00;3.80;;;;;;;;;;106744;1299;22586;-34
2022/10/02 02:14:06;;;;;;;5.30;3.70;;;;;;;;;;106745;1300;22559;-34
2022/10/02 02:16:39;;;;;;;6.30;3.80;;;;;;;;;;106704;1297;22570;-34
2022/10/02 02:19:12;;;;;;;5.70;4.00;;;;;;;;;;106834;1303;22607;-34
2022/10/02 02:21:42;;;;;;;5.40;3.80;;;;;;;;;;106797;1303;24165;-34
2022/10/02 02:24:14;;;;;;;5.70;3.80;;;;;;;;;;106774;1303;22602;-34
2022/10/02 02:26:44;;;;;;;5.70;3.80;;;;;;;;;;106772;1303;22553;-33
2022/10/02 02:29:13;;;;;;;5.10;3.40;;;;;;;;;;106721;1297;24249;-33
2022/10/02 02:31:46;;;;;;;5.90;3.90;;;;;;;;;;106741;1297;22587;-33
2022/10/02 02:34:17;;;;;;;5.90;3.40;;;;;;;;;;106731;1300;22553;-33
2022/10/02 02:36:50;;;;;;;5.20;3.50;;;;;;;;;;106678;1297;22549;-33
2022/10/02 02:39:17;;;;;;;;;;;;;;;;;;106890;1295;22523;-33
2022/10/02 02:41:48;;;;;;;5.60;3.70;;;;;;;;;;106854;1299;22604;-34
2022/10/02 02:44:21;;;;;;;6.30;3.70;;;;;;;;;;106859;1300;22555;-33
2022/10/02 02:47:05;;;;;;;6.00;3.80;;;;;;;;;;106830;1298;25422;-33
2022/10/02 02:49:38;;;;;;;5.70;3.70;;;;;;;;;;106728;1297;22560;-34
2022/10/02 02:52:05;;;;;;;;;;;;;;;;;;106798;1303;22552;-34
2022/10/02 02:54:36;;;;;;;6.50;3.50;;;;;;;;;;106725;1303;25388;-34
2022/10/02 02:57:06;;;;;;;5.30;3.60;;;;;;;;;;106688;1303;22560;-34
2022/10/02 02:59:36;;;;;;;5.60;3.60;;;;;;;;;;106790;1301;22578;-34
2022/10/02 03:02:04;;;;;;;5.50;3.60;;;;;;;;;;106814;1299;22551;-34
2022/10/02 03:04:33;;;;;;;5.20;3.40;;;;;;;;;;106825;1299;22856;-34
2022/10/02 03:07:03;;;;;;;5.00;3.60;;;;;;;;;;106820;1300;22532;-34
2022/10/02 03:09:33;;;;;;;5.20;3.30;;;;;;;;;;106820;1301;22962;-35
2022/10/02 03:12:07;;;;;;;5.00;3.50;;;;;;;;;;106832;1296;22577;-34
2022/10/02 03:14:42;;;;;;;5.40;3.60;;;;;;;;;;106830;1300;22552;-35
2022/10/02 03:17:19;;;;;;;6.00;3.40;;;;;;;;;;106812;1297;22547;-35
2022/10/02 03:19:51;;;;;;;5.80;3.60;;;;;;;;;;106833;1303;22549;-35
2022/10/02 03:22:24;;;;;;;4.70;3.20;;;;;;;;;;106606;1296;269266;-34
2022/10/02 03:24:57;;;;;;;4.90;3.50;;;;;;;;;;106840;1296;24345;-34
2022/10/02 03:27:24;;;;;;;;;;;;;;;;;;106824;1300;25185;-34
2022/10/02 03:29:57;;;;;;;5.10;3.30;;;;;;;;;;106790;1299;23759;-34
2022/10/02 03:32:26;;;;;;;5.00;3.20;;;;;;;;;;106831;1301;22550;-34
2022/10/02 03:34:56;;;;;;;5.10;3.30;;;;;;;;;;106838;1300;22562;-34
2022/10/02 03:37:28;;;;;;;5.30;3.30;;;;;;;;;;106848;1303;22585;-34
2022/10/02 03:40:00;;;;;;;5.00;3.30;;;;;;;;;;106773;1299;22565;-34
2022/10/02 03:42:31;;;;;;;4.90;3.20;;;;;;;;;;106599;1298;22550;-34
2022/10/02 03:45:00;;;;;;;5.30;3.50;;;;;;;;;;106869;1296;22559;-34
2022/10/02 03:47:29;;;;;;;5.30;3.60;;;;;;;;;;106835;1303;22599;-34
2022/10/02 03:49:58;;;;;;;5.10;3.30;;;;;;;;;;106817;1303;22558;-34
2022/10/02 03:52:31;;;;;;;5.00;3.10;;;;;;;;;;106807;1303;22961;-34
2022/10/02 03:55:02;;;;;;;4.90;3.20;;;;;;;;;;106813;1299;22567;-34
2022/10/02 03:57:33;;;;;;;4.70;3.30;;;;;;;;;;106855;1298;22662;-34
2022/10/02 04:00:06;;;;;;;5.20;3.10;;;;;;;;;;106745;1300;22549;-34
2022/10/02 04:02:37;;;;;;;5.10;3.50;;;;;;;;;;106849;1296;22533;-34
2022/10/02 04:05:11;;;;;;;5.20;3.40;;;;;;;;;;106851;1303;22615;-35
2022/10/02 04:07:42;;;;;;;5.40;3.40;;;;;;;;;;106816;1298;22542;-34
2022/10/02 04:10:28;;;;;;;4.70;3.40;;;;;;;;;;106768;1303;22676;-34
2022/10/02 04:13:02;;;;;;;4.80;3.20;;;;;;;;;;106765;1303;24359;-34
2022/10/02 04:15:35;;;;;;;5.00;3.10;;;;;;;;;;106780;1299;22602;-34
2022/10/02 04:18:07;;;;;;;4.60;3.10;;;;;;;;;;106784;1299;22556;-34
2022/10/02 04:20:42;;;;;;;6.10;3.70;;;;;;;;;;106772;1303;22697;-34
2022/10/02 04:23:15;;;;;;;5.10;3.20;;;;;;;;;;106849;1303;22645;-33
2022/10/02 04:25:47;;;;;;;5.00;3.20;;;;;;;;;;106842;1299;25509;-33
2022/10/02 04:28:18;;;;;;;5.10;3.30;;;;;;;;;;106790;1303;26380;-33
2022/10/02 04:30:47;;;;;;;5.10;3.20;;;;;;;;;;106733;1303;22543;-34
2022/10/02 04:33:18;;;;;;;5.00;3.20;;;;;;;;;;106770;1296;24343;-33
2022/10/02 04:35:50;;;;;;;5.50;3.20;;;;;;;;;;106775;1296;25190;-34
2022/10/02 04:38:28;;;;;;;5.10;3.20;;;;;;;;;;106704;1303;22561;-34
2022/10/02 04:41:04;;;;;;;4.70;3.10;;;;;;;;;;106768;1303;22541;-34
2022/10/02 04:43:37;;;;;;;5.00;3.10;;;;;;;;;;106821;1303;22539;-33
2022/10/02 04:46:12;;;;;;;4.80;3.10;;;;;;;;;;106859;1296;22547;-33
2022/10/02 04:48:51;;;;;;;5.50;3.70;;;;;;;;;;106828;1296;24402;-33
2022/10/02 04:51:26;;;;;;;5.00;3.00;;;;;;;;;;106723;1299;22561;-33
2022/10/02 04:54:11;;;;;;;4.80;2.90;;;;;;;;;;106720;1303;22534;-33
2022/10/02 04:56:51;;;;;;;5.00;3.30;;;;;;;;;;106737;1299;22539;-34
2022/10/02 04:59:28;;;;;;;5.10;3.40;;;;;;;;;;106719;1303;22559;-34
2022/10/02 05:02:06;;;;;;;5.00;3.20;;;;;;;;;;106879;1300;30409;-34
2022/10/02 05:04:43;;;;;;;4.60;2.90;;;;;;;;;;106851;1303;22568;-34
2022/10/02 05:07:19;;;;;;;4.40;3.00;;;;;;;;;;106857;1299;22563;-34
2022/10/02 05:09:54;;;;;;;5.20;3.20;;;;;;;;;;106792;1296;22573;-33
2022/10/02 05:12:34;;;;;;;5.30;3.10;;;;;;;;;;106738;1303;22855;-33
2022/10/02 05:15:11;;;;;;;4.50;2.70;;;;;;;;;;106716;1303;22569;-33
2022/10/02 05:17:44;;;;;;;4.80;3.00;;;;;;;;;;106696;1300;22586;-34
2022/10/02 05:20:26;;;;;;;5.10;3.10;;;;;;;;;;106693;1303;22568;-34
2022/10/02 05:23:04;;;;;;;4.60;2.70;;;;;;;;;;106827;1301;22549;-34
2022/10/02 05:25:43;;;;;;;5.10;3.40;;;;;;;;;;106850;1296;22566;-34
2022/10/02 05:28:17;;;;;;;5.00;3.30;;;;;;;;;;106843;1303;22701;-33
2022/10/02 05:30:48;;;;;;;5.30;2.90;;;;;;;;;;106799;1300;22573;-35
2022/10/02 05:33:31;;;;;;;4.30;2.80;;;;;;;;;;106707;1297;24122;-34
2022/10/02 05:36:12;;;;;;;4.40;3.00;;;;;;;;;;106716;1297;25614;-34
2022/10/02 05:38:54;;;;;;;4.50;2.70;;;;;;;;;;106706;1298;22565;-34
2022/10/02 05:41:26;;;;;;;5.00;3.00;;;;;;;;;;106728;1296;22562;-34
2022/10/02 05:44:01;;;;;;;4.70;3.00;;;;;;;;;;106884;1303;22539;-34
2022/10/02 05:46:31;;;;;;;4.90;2.90;;;;;;;;;;106875;1303;22540;-34
2022/10/02 05:49:02;;;;;;;4.30;2.90;;;;;;;;;;106861;1296;22562;-34
2022/10/02 05:51:37;;;;;;;4.80;3.00;;;;;;;;;;106758;1296;22574;-34
2022/10/02 05:54:10;;;;;;;4.30;2.70;;;;;;;;;;106724;1303;22970;-34
2022/10/02 05:56:37;;;;;;;;;;;;;;;;;;106720;1303;22530;-34
2022/10/02 05:59:11;;;;;;;4.70;2.60;;;;;;;;;;106678;1303;22543;-34
2022/10/02 06:01:42;;;;;;;4.10;2.60;;;;;;;;;;106829;1299;22508;-34
2022/10/02 06:04:13;;;;;;;4.60;2.90;;;;;;;;;;106902;1303;22581;-34
2022/10/02 06:06:45;;;;;;;4.50;2.60;;;;;;;;;;106888;1295;22570;-34
2022/10/02 06:09:15;;;;;;;4.20;2.50;;;;;;;;;;106908;1298;22559;-34
2022/10/02 06:11:46;;;;;;;4.40;2.70;;;;;;;;;;106863;1295;22792;-34
2022/10/02 06:14:20;;;;;;;4.20;2.60;;;;;;;;;;106849;1303;22599;-34
2022/10/02 06:16:53;;;;;;;4.10;2.40;;;;;;;;;;106835;1299;24287;-34
2022/10/02 06:19:21;;;;;;;;;;;;;;;;;;106883;1297;22511;-34
2022/10/02 06:21:51;;;;;;;4.50;2.70;;;;;;;;;;106820;1296;23793;-34
2022/10/02 06:24:22;;;;;;;4.60;2.50;;;;;;;;;;106882;1303;23520;-34
2022/10/02 06:26:53;;;;;;;5.10;2.50;;;;;;;;;;106903;1295;22558;-34
2022/10/02 06:29:25;;;;;;;3.90;2.20;;;;;;;;;;106902;1303;22529;-33
2022/10/02 06:31:59;;;;;;;4.20;2.30;;;;;;;;;;106857;1295;22551;-33
2022/10/02 06:34:28;;;;;;;4.40;2.10;;;;;;;;;;106823;1297;22575;-33
2022/10/02 06:37:07;;;;;;;4.10;2.20;;;;;;;;;;106837;1303;22557;-34
2022/10/02 06:39:47;;;;;;;4.10;2.40;;;;;;;;;;106853;1300;22981;-34
2022/10/02 06:42:22;;;;;;;4.00;2.10;;;;;;;;;;106825;1299;24186;-34
2022/10/02 06:44:53;;;;;;;3.90;2.30;;;;;;;;;;106846;1295;24216;-34
2022/10/02 06:47:33;;;;;;;3.70;2.20;;;;;;;;;;106817;1299;22565;-33
2022/10/02 06:50:26;;;;;;;3.40;2.10;;;;;;;;;;106905;1303;22565;-33
2022/10/02 06:52:57;;;;;;;4.20;2.10;;;;;;;;;;106844;1302;22545;-33
2022/10/02 06:55:34;;;;;;;3.70;2.00;;;;;;;;;;106872;1303;22595;-33
2022/10/02 06:58:13;;;;;;;4.20;2.20;;;;;;;;;;106856;1299;25195;-33
2022/10/02 07:00:47;;;;;;;3.80;2.20;;;;;;;;;;106858;1295;24178;-34
2022/10/02 07:03:34;;;;;;;3.70;2.10;;;;;;;;;;106848;1299;22565;-34
2022/10/02 07:06:13;;;;;;;4.30;2.30;;;;;;;;;;106895;1302;22535;-33
2022/10/02 07:08:49;;;;;;;3.80;2.10;;;;;;;;;;106907;1299;22562;-34
2022/10/02 07:11:21;;;;;;;3.70;2.10;;;;;;;;;;106878;1295;24428;-34
2022/10/02 07:13:57;;;;;;;3.90;2.10;;;;;;;;;;106813;1300;22561;-34
2022/10/02 07:16:32;;;;;;;3.80;2.20;;;;;;;;;;106891;1303;22542;-34
2022/10/02 07:19:12;;;;;;;3.90;2.00;;;;;;;;;;106851;1303;22582;-34
2022/10/02 07:21:45;;;;;;;3.60;2.00;;;;;;;;;;106835;1299;25263;-34
2022/10/02 07:24:25;;;;;;;3.90;1.80;;;;;;;;;;106819;1300;25660;-35
2022/10/02 07:27:01;;;;;;;4.50;2.20;;;;;;;;;;106896;1299;22557;-34
2022/10/02 07:29:38;;;;;;;3.80;2.00;;;;;;;;;;106889;1301;22555;-34
2022/10/02 07:32:22;;;;;;;4.10;2.20;;;;;;;;;;106881;1303;23325;-34
2022/10/02 07:34:55;;;;;;;3.90;2.00;;;;;;;;;;106799;1302;35100;-35
2022/10/02 07:37:29;;;;;;;3.20;1.80;;;;;;;;;;106860;1297;24294;-34
2022/10/02 07:40:09;;;;;;;3.90;2.10;;;;;;;;;;106838;1303;22642;-34
2022/10/02 07:42:55;;;;;;;4.10;2.30;;;;;;;;;;106832;1297;22582;-34
2022/10/02 07:45:33;;;;;;;3.80;1.90;;;;;;;;;;106824;1303;34568;-33
2022/10/02 07:48:07;;;;;;;3.70;1.90;;;;;;;;;;106883;1295;24274;-34
2022/10/02 07:50:40;;;;;;;4.00;2.00;;;;;;;;;;106873;1298;22549;-34
2022/10/02 07:53:14;;;;;;;4.10;2.20;;;;;;;;;;106878;1303;22655;-31
2022/10/02 07:55:45;;;;;;;4.20;2.10;;;;;;;;;;106815;1299;34677;-33
2022/10/02 07:58:17;;;;;;;4.50;2.10;;;;;;;;;;106851;1299;22563;-33
2022/10/02 08:00:49;;;;;;;3.80;1.90;;;;;;;;;;106857;1295;22683;-35
2022/10/02 08:03:18;;;;;;;3.20;1.80;;;;;;;;;;106792;1303;24321;-34
2022/10/02 08:05:49;;;;;;;3.90;2.10;;;;;;;;;;106794;1296;22527;-33
2022/10/02 08:08:19;;;;;;;3.80;1.90;;;;;;;;;;106838;1303;23442;-33
2022/10/02 08:10:49;;;;;;;4.00;2.20;;;;;;;;;;106811;1303;22549;-33
2022/10/02 08:13:21;;;;;;;3.50;1.90;;;;;;;;;;106872;1297;22668;-33
2022/10/02 08:15:54;;;;;;;3.30;1.90;;;;;;;;;;106819;1297;22569;-34
2022/10/02 08:18:27;;;;;;;3.80;1.80;;;;;;;;;;106846;1299;24002;-34
2022/10/02 08:20:56;;;;;;;4.40;2.20;;;;;;;;;;106856;1299;25572;-34
2022/10/02 08:23:28;;;;;;;5.50;2.40;;;;;;;;;;106840;1295;22584;-34
2022/10/02 08:26:01;;;;;;;4.90;2.20;;;;;;;;;;106840;1299;22662;-34
2022/10/02 08:28:35;;;;;;;3.50;2.00;;;;;;;;;;106902;1295;22531;-34
2022/10/02 08:31:08;;;;;;;4.30;2.00;;;;;;;;;;106885;1303;22700;-34
2022/10/02 08:33:41;;;;;;;4.90;2.10;;;;;;;;;;106847;1303;22554;-34
2022/10/02 08:36:31;;;;;;;4.90;2.50;;;;;;;;;;106789;1299;24397;-34
2022/10/02 08:39:03;;;;;;;4.90;2.40;;;;;;;;;;106803;1297;22574;-34
2022/10/02 08:41:44;;;;;;;4.90;2.50;;;;;;;;;;106793;1296;22613;-34
2022/10/02 08:44:24;;;;;;;5.60;2.60;;;;;;;;;;106816;1303;22620;-34
2022/10/02 08:47:07;;;;;;;5.30;2.80;;;;;;;;;;106802;1303;34358;-33
2022/10/02 08:49:52;;;;;;;5.30;2.30;;;;;;;;;;106872;1298;22584;-33
2022/10/02 08:52:40;;;;;;;4.60;2.10;;;;;;;;;;106894;1303;22575;-33
2022/10/02 08:55:26;;;;;;;5.60;2.40;;;;;;;;;;106865;1301;26395;-34
2022/10/02 08:58:15;;;;;;;4.70;2.20;;;;;;;;;;106668;1303;24413;-34
2022/10/02 09:00:50;;;;;;;4.10;2.00;;;;;;;;;;106790;1302;22557;-34
2022/10/02 09:03:37;;;;;;;4.50;1.90;;;;;;;;;;106842;1299;22528;-34
2022/10/02 09:06:20;;;;;;;3.90;1.70;;;;;;;;;;106819;1302;22587;-34
2022/10/02 09:09:06;;;;;;;4.90;1.90;;;;;;;;;;106931;1295;24334;-34
2022/10/02 09:11:56;;;;;;;5.00;2.00;;;;;;;;;;106950;1300;25416;-34
2022/10/02 09:14:46;;;;;;;4.30;2.00;;;;;;;;;;106952;1299;22578;-34
2022/10/02 09:17:33;;;;;;;4.50;1.60;;;;;;;;;;106817;1302;22653;-34
2022/10/02 09:20:16;;;;;;;5.30;2.10;;;;;;;;;;106867;1299;25179;-33
2022/10/02 09:22:55;;;;;;;5.40;2.10;;;;;;;;;;106822;1297;22567;-33
2022/10/02 09:25:34;;;;;;;4.30;1.90;;;;;;;;;;106797;1302;22961;-33
2022/10/02 09:28:16;;;;;;;3.80;1.80;;;;;;;;;;106943;1303;28548;-31
2022/10/02 09:31:01;;;;;;;4.50;1.90;;;;;;;;;;106948;1303;22659;-31
2022/10/02 09:33:42;;;;;;;4.80;1.90;;;;;;;;;;106904;1303;22556;-31
2022/10/02 09:36:23;;;;;;;4.10;1.90;;;;;;;;;;106831;1301;26406;-31
2022/10/02 09:39:06;;;;;;;3.70;1.90;;;;;;;;;;106783;1303;22552;-31
2022/10/02 09:41:55;;;;;;;4.90;1.90;;;;;;;;;;106587;1303;22561;-31
2022/10/02 09:44:34;;;;;;;4.70;2.00;;;;;;;;;;106831;1300;22561;-31
2022/10/02 09:47:26;;;;;;;3.70;1.80;;;;;;;;;;106788;1300;22555;-31
2022/10/02 09:50:09;;;;;;;3.80;1.90;;;;;;;;;;106915;1303;22587;-32
2022/10/02 09:52:46;;;;;;;5.20;1.80;;;;;;;;;;106934;1302;24741;-31
2022/10/02 09:55:38;;;;;;;5.70;1.70;;;;;;;;;;106913;1303;22561;-30
2022/10/02 09:58:17;;;;;;;4.60;1.50;;;;;;;;;;105945;1303;22585;-31
2022/10/02 10:01:02;;;;;;;5.00;1.70;;;;;;;;;;106815;1303;22580;-31
2022/10/02 10:03:56;;;;;;;4.00;1.70;;;;;;;;;;106863;1303;22547;-31
2022/10/02 10:06:50;;;;;;;3.90;1.70;;;;;;;;;;106823;1303;22564;-32
2022/10/02 10:09:35;;;;;;;3.60;1.50;;;;;;;;;;106893;1299;34326;-32
2022/10/02 10:12:13;;;;;;;3.90;1.80;;;;;;;;;;106949;1303;22651;-31
2022/10/02 10:14:56;;;;;;;6.30;1.60;;;;;;;;;;106915;1299;22564;-31
2022/10/02 10:17:55;;;;;;;4.20;1.80;;;;;;;;;;106848;1299;23236;-31
2022/10/02 10:20:33;;;;;;;5.00;2.10;;;;;;;;;;106822;1303;25397;-31
2022/10/02 10:23:13;;;;;;;4.00;1.70;;;;;;;;;;106840;1302;22650;-31
2022/10/02 10:25:57;;;;;;;5.60;2.00;;;;;;;;;;106799;1303;22550;-32
2022/10/02 10:28:37;;;;;;;4.30;1.80;;;;;;;;;;106848;1300;25203;-32
2022/10/02 10:31:25;;;;;;;3.70;1.50;;;;;;;;;;106901;1295;22679;-32
2022/10/02 10:34:11;;;;;;;3.40;1.50;;;;;;;;;;107000;1302;22563;-31
2022/10/02 10:40:00;;;;;;;4.70;1.70;;;;;;;;;;106877;1302;31511;-34
2022/10/02 10:42:49;;;;;;;3.80;1.40;;;;;;;;;;106826;1302;22790;-33
2022/10/02 10:45:28;;;;;;;4.40;1.50;;;;;;;;;;106858;1299;22561;-31
2022/10/02 10:48:10;;;;;;;3.70;1.50;;;;;;;;;;106858;1297;22655;-31
2022/10/02 10:50:44;;;;;;;4.40;1.80;;;;;;;;;;106900;1297;22554;-33
2022/10/02 10:53:20;;;;;;;3.50;1.40;;;;;;;;;;106934;1300;22562;-33
2022/10/02 10:55:58;;;;;;;4.00;1.40;;;;;;;;;;106853;1297;25180;-33
2022/10/02 10:58:33;;;;;;;3.90;1.50;;;;;;;;;;106841;1298;25187;-33
2022/10/02 11:01:13;;;;;;;3.40;1.50;;;;;;;;;;106863;1294;24293;-31
2022/10/02 11:03:54;;;;;;;4.40;1.70;;;;;;;;;;106891;1302;22553;-33
2022/10/02 11:06:34;;;;;;;6.20;2.00;;;;;;;;;;107037;1300;22640;-32
2022/10/02 11:09:16;;;;;;;5.00;1.80;;;;;;;;;;107008;1298;22671;-32
2022/10/02 11:11:56;;;;;;;6.30;2.50;;;;;;;;;;106911;1302;23091;-32
2022/10/02 11:14:29;;;;;;;6.60;2.70;;;;;;;;;;106663;1300;23818;-32
2022/10/02 11:17:09;;;;;;;7.30;2.40;;;;;;;;;;106681;1295;22666;-32
2022/10/02 11:19:47;;;;;;;5.80;2.20;;;;;;;;;;107416;1300;25478;-32
2022/10/02 11:22:26;;;;;;;6.00;2.20;;;;;;;;;;106493;1302;153130;-32
2022/10/02 11:25:20;;;;;;;6.70;2.20;;;;;;;;;;108349;1295;22821;-32
2022/10/02 11:27:57;;;;;;;5.80;2.60;;;;;;;;;;106877;1295;22570;-32
2022/10/02 11:30:31;;;;;;;4.80;2.00;;;;;;;;;;106831;1301;22700;-32
2022/10/02 11:33:18;;;;;;;5.40;2.20;;;;;;;;;;106927;1298;22565;-32
2022/10/02 11:36:03;;;;;;;5.70;2.20;;;;;;;;;;106853;1302;22554;-31
2022/10/02 11:38:53;;;;;;;8.00;3.00;;;;;;;;;;106636;1300;25433;-31
2022/10/02 11:41:37;;;;;;;6.80;2.60;;;;;;;;;;106900;1300;35125;-32
2022/10/02 11:44:11;;;;;;;8.50;3.40;;;;;;;;;;106913;1302;22650;-32
2022/10/02 11:46:53;;;;;;;6.80;3.00;;;;;;;;;;107017;1302;22655;-32
2022/10/02 11:49:25;;;;;;;;;;;;;;;;;;106939;1302;22546;-32
2022/10/02 11:52:07;;;;;;;7.30;3.20;;;;;;;;;;106918;1298;25180;-33
2022/10/02 11:54:55;;;;;;;8.30;4.10;;;;;;;;;;108489;1295;23228;-31
2022/10/02 11:57:33;;;;;;;8.40;4.90;;;;;;;;;;108502;1301;22479;-32
2022/10/02 12:00:13;;;;;;;12.60;5.70;;;;;;;;;;107481;1295;26359;-32
2022/10/02 12:02:46;;;;;;;11.20;5.80;;;;;;;;;;106923;1298;25865;-32
2022/10/02 12:05:21;;;;;;;11.30;5.60;;;;;;;;;;106744;1302;22560;-32
2022/10/02 12:08:00;;;;;;;10.70;5.10;;;;;;;;;;106863;1298;25338;-32
2022/10/02 12:10:32;;;;;;;10.00;4.60;;;;;;;;;;106890;1302;22618;-32
2022/10/02 12:13:14;;;;;;;10.60;5.60;;;;;;;;;;107013;1302;25605;-32
2022/10/02 12:15:48;;;;;;;10.80;5.30;;;;;;;;;;107038;1301;24811;-32
2022/10/02 12:18:22;;;;;;;11.90;6.00;;;;;;;;;;107048;1302;25750;-32
2022/10/02 12:27:02;;;;;;;10.40;4.80;;;;;;;;;;106957;1302;22591;-32
2022/10/02 12:29:39;;;;;;;9.00;4.60;;;;;;;;;;106932;1297;22549;-32
2022/10/02 12:32:14;;;;;;;10.30;4.80;;;;;;;;;;107038;1294;22560;-33
2022/10/02 12:34:52;;;;;;;9.20;4.80;;;;;;;;;;107059;1302;22551;-33
2022/10/02 12:37:24;;;;;;;10.00;4.50;;;;;;;;;;107079;1302;22717;-33
2022/10/02 12:39:57;;;;;;;11.00;4.90;;;;;;;;;;107056;1302;22543;-33
2022/10/02 12:42:44;;;;;;;8.70;4.70;;;;;;;;;;106941;1298;22665;-33
2022/10/02 12:45:27;;;;;;;9.70;4.80;;;;;;;;;;106943;1299;22665;-33
2022/10/02 12:48:07;;;;;;;8.80;5.50;;;;;;;;;;106955;1294;24302;-33
2022/10/02 12:50:53;;;;;;;10.60;7.50;;;;;;;;;;106916;1294;22545;-33
2022/10/02 12:53:48;;;;;;;14.90;8.40;;;;;;;;;;107061;1298;22565;-32
2022/10/02 12:56:34;;;;;;;12.70;7.90;;;;;;;;;;107099;1298;22599;-32
2022/10/02 12:59:06;;;;;;;11.70;6.80;;;;;;;;;;107066;1302;22527;-33
2022/10/02 13:01:55;;;;;;;11.40;6.40;;;;;;;;;;107024;1298;22662;-33
2022/10/02 13:04:42;;;;;;;11.10;6.90;;;;;;;;;;106679;1302;22597;-33
2022/10/02 13:10:16;;;;;;;12.20;7.00;;;;;;;;;;102580;1343;555971;-32
2022/10/02 13:12:51;;;;;;;11.80;6.80;;;;;;;;;;105709;1311;22578;-32
2022/10/02 13:15:36;;;;;;;11.00;6.50;;;;;;;;;;105721;1308;22594;-33
2022/10/02 13:18:12;;;;;;;9.50;5.50;;;;;;;;;;105735;1308;24322;-32
2022/10/02 13:20:45;;;;;;;9.30;5.60;;;;;;;;;;105733;1315;22578;-32
2022/10/02 13:23:21;;;;;;;11.10;5.60;;;;;;;;;;105414;1310;472486;-32
2022/10/02 13:25:56;;;;;;;10.30;5.40;;;;;;;;;;105793;1305;22626;-32
2022/10/02 13:28:35;;;;;;;9.00;5.20;;;;;;;;;;105838;1305;24198;-32
2022/10/02 13:31:11;;;;;;;8.80;4.90;;;;;;;;;;105778;1311;22653;-32
2022/10/02 13:33:57;;;;;;;9.70;5.60;;;;;;;;;;105818;1308;24548;-32
2022/10/02 13:36:29;;;;;;;8.00;4.70;;;;;;;;;;105824;1313;22610;-32
2022/10/02 13:39:10;;;;;;;8.90;4.80;;;;;;;;;;105808;1313;23211;-32
2022/10/02 13:41:48;;;;;;;7.80;4.70;;;;;;;;;;105871;1313;30757;-32
2022/10/02 13:44:22;;;;;;;7.70;4.60;;;;;;;;;;105762;1313;22665;-32
2022/10/02 13:47:06;;;;;;;8.20;4.30;;;;;;;;;;105771;1307;22714;-32
2022/10/02 13:49:44;;;;;;;7.00;4.20;;;;;;;;;;105743;1307;22595;-30
2022/10/02 13:52:18;;;;;;;7.00;4.20;;;;;;;;;;105800;1313;30501;-31
2022/10/02 13:54:56;;;;;;;8.70;4.50;;;;;;;;;;105818;1313;22667;-32
2022/10/02 13:57:36;;;;;;;8.10;4.20;;;;;;;;;;105830;1309;24379;-32
2022/10/02 14:00:09;;;;;;;7.90;4.40;;;;;;;;;;105759;1313;22589;-32
2022/10/02 14:02:43;;;;;;;8.80;4.50;;;;;;;;;;105772;1309;24275;-32
2022/10/02 14:05:16;;;;;;;7.80;4.00;;;;;;;;;;105777;1313;22662;-31
2022/10/02 14:07:51;;;;;;;9.40;4.20;;;;;;;;;;105763;1306;24332;-31
2022/10/02 14:10:27;;;;;;;7.80;4.70;;;;;;;;;;105734;1309;25511;-31
2022/10/02 14:13:02;;;;;;;7.10;4.20;;;;;;;;;;105835;1313;22614;-32
2022/10/02 14:15:35;;;;;;;8.90;4.60;;;;;;;;;;105827;1305;22576;-30
2022/10/02 14:18:26;;;;;;;7.20;4.30;;;;;;;;;;105844;1313;22544;-33
2022/10/02 14:21:00;;;;;;;8.80;4.30;;;;;;;;;;105615;1307;22597;-32
2022/10/02 14:23:41;;;;;;;7.50;3.90;;;;;;;;;;105649;1307;22578;-32
2022/10/02 14:26:14;;;;;;;8.40;4.20;;;;;;;;;;105795;1309;22600;-32
2022/10/02 14:28:53;;;;;;;8.20;4.30;;;;;;;;;;105789;1313;22564;-33
2022/10/02 14:31:32;;;;;;;7.80;4.10;;;;;;;;;;105772;1308;25345;-33
2022/10/02 14:34:14;;;;;;;8.50;4.30;;;;;;;;;;105737;1313;24373;-33
2022/10/02 14:36:50;;;;;;;8.80;4.10;;;;;;;;;;105817;1313;22565;-32
2022/10/02 14:39:26;;;;;;;6.90;4.00;;;;;;;;;;105799;1310;22627;-32
2022/10/02 14:42:01;;;;;;;7.70;4.20;;;;;;;;;;105757;1310;22566;-30
2022/10/02 14:44:41;;;;;;;7.40;3.90;;;;;;;;;;105818;1310;22551;-32
2022/10/02 14:47:16;;;;;;;6.60;3.90;;;;;;;;;;105788;1313;22675;-32
2022/10/02 14:49:51;;;;;;;6.60;3.40;;;;;;;;;;105762;1309;22592;-31
2022/10/02 14:52:26;;;;;;;6.80;3.60;;;;;;;;;;105769;1313;22565;-30
2022/10/02 14:55:07;;;;;;;7.60;3.80;;;;;;;;;;105820;1310;22589;-31
2022/10/02 14:57:50;;;;;;;6.40;3.50;;;;;;;;;;105853;1305;22567;-32
2022/10/02 15:00:23;;;;;;;6.80;3.40;;;;;;;;;;105831;1313;22752;-31
2022/10/02 15:03:01;;;;;;;6.80;3.50;;;;;;;;;;105733;1313;23588;-31
2022/10/02 15:05:38;;;;;;;6.50;3.40;;;;;;;;;;105777;1313;22561;-31
2022/10/02 15:08:11;;;;;;;6.00;3.40;;;;;;;;;;105760;1313;23475;-31
2022/10/02 15:10:39;;;;;;;;;;;;;;;;;;106073;1304;22597;-32
2022/10/02 15:13:09;;;;;;;5.90;3.30;;;;;;;;;;106061;1306;22551;-31
2022/10/02 15:15:40;;;;;;;6.40;3.50;;;;;;;;;;106135;1306;22584;-32
2022/10/02 15:18:20;;;;;;;6.00;3.40;;;;;;;;;;106133;1305;22558;-33
2022/10/02 15:20:58;;;;;;;6.20;3.10;;;;;;;;;;106490;1303;23097;-31
2022/10/02 15:23:41;;;;;;;5.90;3.30;;;;;;;;;;106417;1303;26028;-31
2022/10/02 15:26:09;;;;;;;;;;;;;;;;;;106476;1299;25222;-31
2022/10/02 15:28:46;;;;;;;7.40;3.80;;;;;;;;;;106461;1303;25225;-31
2022/10/02 15:31:22;;;;;;;6.40;3.20;;;;;;;;;;106452;1303;22562;-31
2022/10/02 15:33:57;;;;;;;6.30;3.30;;;;;;;;;;106484;1306;22600;-31
2022/10/02 15:36:44;;;;;;;5.80;3.50;;;;;;;;;;106464;1306;22549;-31